Norwegian Breakaway — C6ZJ3 — position and weather

sailwx.info

Track history (hours):
 
Tides and Currents Weather Stations Pressure Air Temp Water Temp Dewpoint Dewpoint Depression Visibility Wind Speed Wind Dir Waves Ship Positions

Norwegian Breakaway

Last reported at 2019-Apr-21 23:10 UTC. Time now 2019-Apr-26 04:29 UTC.
Position N 25°32' W 079°50'.

Length 325 m; draft 8.6 m.

Type: Passenger vessel. MMSI: 311050800.

Date/timePositionNaut miles runAvg speedWind from/ knotsBaromVisibWave heightAir tempDewpointWater temp
2019-Apr-21 23:10N 25°32' W 079°50'317.1
2019-Apr-21 23:00N 25°34' W 079°52'816.9
2019-Apr-21 22:31N 25°41' W 079°58'815.9
2019-Apr-21 22:00N 25°46' W 080°04'5 9.7
2019-Apr-21 21:30N 25°46' W 080°10'1 1.5
2019-Apr-21 21:00N 25°47' W 080°10'0 0.7
2019-Apr-21 20:28N 25°47' W 080°10'0 0.0
2019-Apr-21 19:58N 25°47' W 080°10'0 0.0
2019-Apr-21 19:28N 25°47' W 080°10'0 0.0
2019-Apr-21 18:58N 25°47' W 080°10'0 0.0
2019-Apr-21 18:28N 25°47' W 080°10'0 0.0
2019-Apr-21 17:58N 25°47' W 080°10'0 0.0
2019-Apr-21 17:28N 25°47' W 080°10'0 0.0
2019-Apr-21 16:58N 25°47' W 080°10'0 0.0
2019-Apr-21 16:28N 25°47' W 080°10'0 0.0
2019-Apr-21 15:58N 25°47' W 080°10'0 0.0
2019-Apr-21 15:28N 25°47' W 080°10'0 0.0
2019-Apr-21 14:58N 25°47' W 080°10'0 0.0
2019-Apr-21 14:28N 25°47' W 080°10'0 0.0
2019-Apr-21 13:58N 25°47' W 080°10'0 0.0
2019-Apr-21 13:30N 25°47' W 080°10'0 0.0
2019-Apr-21 13:00N 25°47' W 080°10'0 0.0
2019-Apr-21 12:30N 25°47' W 080°10'0 0.0
2019-Apr-21 12:00N 25°47' W 080°10'0 0.0
2019-Apr-21 11:30N 25°47' W 080°10'0 0.0
2019-Apr-21 11:00N 25°47' W 080°10'0 0.0
2019-Apr-21 10:28N 25°47' W 080°10'1 1.7
2019-Apr-21 10:00N 25°46' W 080°09'511.0
2019-Apr-21 09:30N 25°46' W 080°03'510.4
2019-Apr-21 09:00N 25°46' W 079°57'815.7
2019-Apr-21 08:31N 25°42' W 079°50'815.4
2019-Apr-21 08:01N 25°38' W 079°43'815.5
2019-Apr-21 07:31N 25°31' W 079°40'816.0
2019-Apr-21 07:00N 25°23' W 079°39'49615.5
2019-Apr-19 23:00N 20°34' W 086°56'4 7.5
2019-Apr-19 22:30N 20°31' W 086°57'0 0.0
2019-Apr-19 21:59N 20°31' W 086°57'0 0.0
2019-Apr-19 21:29N 20°31' W 086°57'0 0.0
2019-Apr-19 20:56N 20°31' W 086°57'0 0.0
2019-Apr-19 20:29N 20°31' W 086°57'0 0.0
2019-Apr-19 19:59N 20°31' W 086°57'0 0.0
2019-Apr-19 19:29N 20°31' W 086°57'0 0.0
2019-Apr-19 18:59N 20°31' W 086°57'0 0.0
2019-Apr-19 18:29N 20°31' W 086°57'0 0.0
2019-Apr-19 17:59N 20°31' W 086°57'0 0.0
2019-Apr-19 17:29N 20°31' W 086°57'0 0.0
2019-Apr-19 16:59N 20°31' W 086°57'0 0.0
2019-Apr-19 16:29N 20°31' W 086°57'0 0.0
2019-Apr-19 15:56N 20°31' W 086°57'0 0.0
2019-Apr-19 15:29N 20°31' W 086°57'0 0.0
2019-Apr-19 14:59N 20°31' W 086°57'0 0.0
2019-Apr-19 14:29N 20°31' W 086°57'0 0.0
2019-Apr-19 13:59N 20°31' W 086°57'0 0.0
2019-Apr-19 13:29N 20°31' W 086°57'0 0.0
2019-Apr-19 12:59N 20°31' W 086°57'0 0.0
2019-Apr-19 12:29N 20°31' W 086°57'0 1.1
2019-Apr-19 12:01N 20°30' W 086°58'4 8.5
2019-Apr-19 11:31N 20°28' W 087°02'510.0
2019-Apr-19 11:00N 20°23' W 087°04'  
2019-Apr-15 02:45N 24°25' W 080°16'518.8
2019-Apr-15 02:29N 24°27' W 080°11'6614.7
2019-Apr-14 22:03N 25°29' W 079°48'217.4
2019-Apr-14 21:57N 25°31' W 079°49'817.4
2019-Apr-14 21:31N 25°37' W 079°54'917.6
2019-Apr-14 21:01N 25°44' W 080°00'612.0
2019-Apr-14 20:30N 25°46' W 080°06'3 6.4
2019-Apr-14 20:00N 25°46' W 080°10'0 0.0
2019-Apr-14 19:30N 25°46' W 080°10'0 0.0
2019-Apr-14 19:00N 25°46' W 080°10'0 0.0
2019-Apr-14 18:30N 25°46' W 080°10'0 0.0
2019-Apr-14 18:00N 25°46' W 080°10'0 0.0
2019-Apr-14 17:30N 25°46' W 080°10'0 0.0
2019-Apr-14 17:00N 25°46' W 080°10'0 0.0
2019-Apr-14 16:30N 25°46' W 080°10'0 0.0
2019-Apr-14 16:00N 25°46' W 080°10'0 0.0
2019-Apr-14 15:30N 25°46' W 080°10'0 0.0
2019-Apr-14 15:00N 25°46' W 080°10'0 0.0
2019-Apr-14 14:30N 25°46' W 080°10'0 0.0
2019-Apr-14 14:00N 25°46' W 080°10'0 0.0
2019-Apr-14 13:30N 25°46' W 080°10'0 0.0
2019-Apr-14 13:00N 25°46' W 080°10'0 0.0
2019-Apr-14 12:30N 25°46' W 080°10'0 0.0
2019-Apr-14 12:00N 25°46' W 080°10'0 0.0
2019-Apr-14 11:30N 25°46' W 080°10'0 0.0
2019-Apr-14 11:00N 25°46' W 080°10'1 2.4
2019-Apr-14 10:31N 25°47' W 080°11'2 4.3
2019-Apr-14 10:01N 25°46' W 080°09'611.8
2019-Apr-14 09:30N 25°46' W 080°02'510.7
2019-Apr-14 09:00N 25°44' W 079°57'1019.7
2019-Apr-14 08:30N 25°34' W 079°56'1020.1
2019-Apr-14 08:00N 25°24' W 079°56'1119.8
2019-Apr-14 07:28N 25°14' W 079°60'59916.4
2019-Apr-12 18:50N 29°46' W 090°01'514.4
2019-Apr-12 18:30N 29°50' W 089°59'510.1
2019-Apr-12 17:59N 29°54' W 089°54'611.4
2019-Apr-12 17:30N 29°56' W 089°60'3 6.7
2019-Apr-12 17:00N 29°57' W 090°04'0 0.1
2019-Apr-12 16:29N 29°57' W 090°04'0 0.0
2019-Apr-12 15:59N 29°57' W 090°04'0 0.0
2019-Apr-12 15:29N 29°57' W 090°04'0 0.0
2019-Apr-12 14:58N 29°57' W 090°04'0 0.0
2019-Apr-12 14:30N 29°57' W 090°04'0 0.0
2019-Apr-12 13:59N 29°57' W 090°04'0 0.0
2019-Apr-12 13:29N 29°57' W 090°04'0 0.0
2019-Apr-12 12:56N 29°57' W 090°04'0 0.0
2019-Apr-12 12:23N 29°57' W 090°04'0 0.0
2019-Apr-12 11:59N 29°57' W 090°04'0 0.3
2019-Apr-12 11:30N 29°57' W 090°04'4 7.6
2019-Apr-12 11:00N 29°56' W 089°59'5 9.3
2019-Apr-12 10:29N 29°54' W 089°54'4 7.3
2019-Apr-12 10:00N 29°53' W 089°58'611.7
2019-Apr-12 09:30N 29°47' W 090°01'612.2
2019-Apr-12 08:59N 29°41' W 089°58'  
Track history (hours):
 
Tides and Currents Weather Stations Pressure Air Temp Water Temp Dewpoint Dewpoint Depression Visibility Wind Speed Wind Dir Waves Ship Positions

Norwegian Breakaway

Last reported at 2019-Apr-21 23:10 UTC. Time now 2019-Apr-26 04:29 UTC.
Position N 25°32' W 079°50'.

Length 325 m; draft 8.6 m.

Type: Passenger vessel. MMSI: 311050800.

Date/timePositionNaut miles runAvg speedWind from/ knotsBaromVisibWave heightAir tempDewpointWater temp
2019-Apr-21 23:10N 25°32' W 079°50'317.1
2019-Apr-21 23:00N 25°34' W 079°52'816.9
2019-Apr-21 22:31N 25°41' W 079°58'815.9
2019-Apr-21 22:00N 25°46' W 080°04'5 9.7
2019-Apr-21 21:30N 25°46' W 080°10'1 1.5
2019-Apr-21 21:00N 25°47' W 080°10'0 0.7
2019-Apr-21 20:28N 25°47' W 080°10'0 0.0
2019-Apr-21 19:58N 25°47' W 080°10'0 0.0
2019-Apr-21 19:28N 25°47' W 080°10'0 0.0
2019-Apr-21 18:58N 25°47' W 080°10'0 0.0
2019-Apr-21 18:28N 25°47' W 080°10'0 0.0
2019-Apr-21 17:58N 25°47' W 080°10'0 0.0
2019-Apr-21 17:28N 25°47' W 080°10'0 0.0
2019-Apr-21 16:58N 25°47' W 080°10'0 0.0
2019-Apr-21 16:28N 25°47' W 080°10'0 0.0
2019-Apr-21 15:58N 25°47' W 080°10'0 0.0
2019-Apr-21 15:28N 25°47' W 080°10'0 0.0
2019-Apr-21 14:58N 25°47' W 080°10'0 0.0
2019-Apr-21 14:28N 25°47' W 080°10'0 0.0
2019-Apr-21 13:58N 25°47' W 080°10'0 0.0
2019-Apr-21 13:30N 25°47' W 080°10'0 0.0
2019-Apr-21 13:00N 25°47' W 080°10'0 0.0
2019-Apr-21 12:30N 25°47' W 080°10'0 0.0
2019-Apr-21 12:00N 25°47' W 080°10'0 0.0
2019-Apr-21 11:30N 25°47' W 080°10'0 0.0
2019-Apr-21 11:00N 25°47' W 080°10'0 0.0
2019-Apr-21 10:28N 25°47' W 080°10'1 1.7
2019-Apr-21 10:00N 25°46' W 080°09'511.0
2019-Apr-21 09:30N 25°46' W 080°03'510.4
2019-Apr-21 09:00N 25°46' W 079°57'815.7
2019-Apr-21 08:31N 25°42' W 079°50'815.4
2019-Apr-21 08:01N 25°38' W 079°43'815.5
2019-Apr-21 07:31N 25°31' W 079°40'816.0
2019-Apr-21 07:00N 25°23' W 079°39'49615.5
2019-Apr-19 23:00N 20°34' W 086°56'4 7.5
2019-Apr-19 22:30N 20°31' W 086°57'0 0.0
2019-Apr-19 21:59N 20°31' W 086°57'0 0.0
2019-Apr-19 21:29N 20°31' W 086°57'0 0.0
2019-Apr-19 20:56N 20°31' W 086°57'0 0.0
2019-Apr-19 20:29N 20°31' W 086°57'0 0.0
2019-Apr-19 19:59N 20°31' W 086°57'0 0.0
2019-Apr-19 19:29N 20°31' W 086°57'0 0.0
2019-Apr-19 18:59N 20°31' W 086°57'0 0.0
2019-Apr-19 18:29N 20°31' W 086°57'0 0.0
2019-Apr-19 17:59N 20°31' W 086°57'0 0.0
2019-Apr-19 17:29N 20°31' W 086°57'0 0.0
2019-Apr-19 16:59N 20°31' W 086°57'0 0.0
2019-Apr-19 16:29N 20°31' W 086°57'0 0.0
2019-Apr-19 15:56N 20°31' W 086°57'0 0.0
2019-Apr-19 15:29N 20°31' W 086°57'0 0.0
2019-Apr-19 14:59N 20°31' W 086°57'0 0.0
2019-Apr-19 14:29N 20°31' W 086°57'0 0.0
2019-Apr-19 13:59N 20°31' W 086°57'0 0.0
2019-Apr-19 13:29N 20°31' W 086°57'0 0.0
2019-Apr-19 12:59N 20°31' W 086°57'0 0.0
2019-Apr-19 12:29N 20°31' W 086°57'0 1.1
2019-Apr-19 12:01N 20°30' W 086°58'4 8.5
2019-Apr-19 11:31N 20°28' W 087°02'510.0
2019-Apr-19 11:00N 20°23' W 087°04'  
2019-Apr-15 02:45N 24°25' W 080°16'518.8
2019-Apr-15 02:29N 24°27' W 080°11'6614.7
2019-Apr-14 22:03N 25°29' W 079°48'217.4
2019-Apr-14 21:57N 25°31' W 079°49'817.4
2019-Apr-14 21:31N 25°37' W 079°54'917.6
2019-Apr-14 21:01N 25°44' W 080°00'612.0
2019-Apr-14 20:30N 25°46' W 080°06'3 6.4
2019-Apr-14 20:00N 25°46' W 080°10'0 0.0
2019-Apr-14 19:30N 25°46' W 080°10'0 0.0
2019-Apr-14 19:00N 25°46' W 080°10'0 0.0
2019-Apr-14 18:30N 25°46' W 080°10'0 0.0
2019-Apr-14 18:00N 25°46' W 080°10'0 0.0
2019-Apr-14 17:30N 25°46' W 080°10'0 0.0
2019-Apr-14 17:00N 25°46' W 080°10'0 0.0
2019-Apr-14 16:30N 25°46' W 080°10'0 0.0
2019-Apr-14 16:00N 25°46' W 080°10'0 0.0
2019-Apr-14 15:30N 25°46' W 080°10'0 0.0
2019-Apr-14 15:00N 25°46' W 080°10'0 0.0
2019-Apr-14 14:30N 25°46' W 080°10'0 0.0
2019-Apr-14 14:00N 25°46' W 080°10'0 0.0
2019-Apr-14 13:30N 25°46' W 080°10'0 0.0
2019-Apr-14 13:00N 25°46' W 080°10'0 0.0
2019-Apr-14 12:30N 25°46' W 080°10'0 0.0
2019-Apr-14 12:00N 25°46' W 080°10'0 0.0
2019-Apr-14 11:30N 25°46' W 080°10'0 0.0
2019-Apr-14 11:00N 25°46' W 080°10'1 2.4
2019-Apr-14 10:31N 25°47' W 080°11'2 4.3
2019-Apr-14 10:01N 25°46' W 080°09'611.8
2019-Apr-14 09:30N 25°46' W 080°02'510.7
2019-Apr-14 09:00N 25°44' W 079°57'1019.7
2019-Apr-14 08:30N 25°34' W 079°56'1020.1
2019-Apr-14 08:00N 25°24' W 079°56'1119.8
2019-Apr-14 07:28N 25°14' W 079°60'59916.4
2019-Apr-12 18:50N 29°46' W 090°01'514.4
2019-Apr-12 18:30N 29°50' W 089°59'510.1
2019-Apr-12 17:59N 29°54' W 089°54'611.4
2019-Apr-12 17:30N 29°56' W 089°60'3 6.7
2019-Apr-12 17:00N 29°57' W 090°04'0 0.1
2019-Apr-12 16:29N 29°57' W 090°04'0 0.0
2019-Apr-12 15:59N 29°57' W 090°04'0 0.0
2019-Apr-12 15:29N 29°57' W 090°04'0 0.0
2019-Apr-12 14:58N 29°57' W 090°04'0 0.0
2019-Apr-12 14:30N 29°57' W 090°04'0 0.0
2019-Apr-12 13:59N 29°57' W 090°04'0 0.0
2019-Apr-12 13:29N 29°57' W 090°04'0 0.0
2019-Apr-12 12:56N 29°57' W 090°04'0 0.0
2019-Apr-12 12:23N 29°57' W 090°04'0 0.0
2019-Apr-12 11:59N 29°57' W 090°04'0 0.3
2019-Apr-12 11:30N 29°57' W 090°04'4 7.6
2019-Apr-12 11:00N 29°56' W 089°59'5 9.3
2019-Apr-12 10:29N 29°54' W 089°54'4 7.3
2019-Apr-12 10:00N 29°53' W 089°58'611.7
2019-Apr-12 09:30N 29°47' W 090°01'612.2
2019-Apr-12 08:59N 29°41' W 089°58'  

Dump ship's entire track history